Time;durP1;ratioP1;P1;durP2;ratioP2;P2;SDS_P1;SDS_P2;PMS_P1;PMS_P2;Temp;Humidity;BMP_temperature;BMP_pressure;BME280_temperature;BME280_humidity;BME280_pressure;Samples;Min_cycle;Max_cycle;Signal;HPM_P1;HPM_P2
2022/03/22 00:01:35;;;;;;;12.27;6.57;;;;;;;3.81;37.69;102006.72;4478842;31;33962;-81
2022/03/22 00:04:03;;;;;;;11.98;6.20;;;;;;;3.62;38.53;102008.09;4491521;31;32052;-81
2022/03/22 00:06:33;;;;;;;14.00;5.60;;;;;;;3.85;38.25;102014.66;4479353;31;33154;-82
2022/03/22 00:09:01;;;;;;;11.45;6.37;;;;;;;3.78;38.43;102012.75;4479953;31;33928;-82
2022/03/22 00:11:28;;;;;;;11.63;6.18;;;;;;;3.80;38.27;102011.06;4491022;31;32749;-82
2022/03/22 00:13:56;;;;;;;11.38;5.75;;;;;;;3.85;37.98;102011.16;4476850;31;32589;-81
2022/03/22 00:16:24;;;;;;;11.18;5.62;;;;;;;3.85;37.91;102004.19;4486123;31;33284;-82
2022/03/22 00:19:11;;;;;;;13.00;5.95;;;;;;;3.71;38.52;102016.13;4491147;31;34544;-82
2022/03/22 00:21:39;;;;;;;12.60;6.55;;;;;;;3.43;39.24;102008.56;4478128;31;33996;-82
2022/03/22 00:24:06;;;;;;;12.48;5.07;;;;;;;3.37;38.83;102008.41;4480004;31;33669;-82
2022/03/22 00:26:34;;;;;;;11.23;4.90;;;;;;;3.18;39.07;102010.66;4491646;31;32945;-82
2022/03/22 00:29:03;;;;;;;11.20;5.12;;;;;;;3.51;38.40;102006.97;4479260;31;35841;-82
2022/03/22 00:31:30;;;;;;;9.88;5.45;;;;;;;3.51;38.12;102004.38;4490902;31;33928;-82
2022/03/22 00:33:58;;;;;;;9.70;4.75;;;;;;;3.53;38.25;102010.53;4490872;31;33842;-81
2022/03/22 00:36:26;;;;;;;9.15;4.32;;;;;;;3.73;37.92;102005.69;4491154;31;33069;-81
2022/03/22 00:38:54;;;;;;;10.50;5.43;;;;;;;3.72;38.13;102003.94;4491304;31;33572;-81
2022/03/22 00:41:21;;;;;;;10.10;5.07;;;;;;;3.54;39.00;102005.31;4490675;31;33361;-82
2022/03/22 00:43:49;;;;;;;7.82;4.62;;;;;;;3.70;38.68;102003.88;4476715;31;33929;-82
2022/03/22 00:46:17;;;;;;;10.38;4.95;;;;;;;3.62;38.75;102002.00;4491265;31;33416;-81
2022/03/22 00:48:47;;;;;;;8.20;4.57;;;;;;;3.60;38.74;102001.94;4487916;31;33219;-82
2022/03/22 00:51:15;;;;;;;6.05;4.10;;;;;;;3.49;38.76;102006.06;4489628;31;34664;-83
2022/03/22 00:53:45;;;;;;;9.68;4.65;;;;;;;3.49;39.08;101993.91;4491285;31;33733;-82
2022/03/22 00:56:13;;;;;;;14.25;5.80;;;;;;;3.48;38.57;102001.72;4488279;31;33113;-82
2022/03/22 00:58:40;;;;;;;9.77;5.85;;;;;;;3.28;39.67;102004.78;4489442;31;33812;-81
2022/03/22 01:01:08;;;;;;;9.10;4.40;;;;;;;3.33;39.00;102003.16;4476968;31;33089;-82
2022/03/22 01:03:36;;;;;;;8.38;3.37;;;;;;;3.25;39.09;102003.84;4476890;31;33041;-83
2022/03/22 01:06:04;;;;;;;10.23;4.37;;;;;;;3.21;38.83;102002.00;4490371;31;33833;-84
2022/03/22 01:08:34;;;;;;;8.43;3.97;;;;;;;3.33;38.68;101997.94;4476729;31;33799;-82
2022/03/22 01:11:02;;;;;;;13.07;4.93;;;;;;;3.49;38.26;101998.25;4491430;31;34386;-83
2022/03/22 01:13:30;;;;;;;6.25;3.78;;;;;;;3.47;38.87;101994.72;4490208;31;33524;-83
2022/03/22 01:15:58;;;;;;;10.25;4.47;;;;;;;3.39;39.53;101993.69;4475925;31;33031;-82
2022/03/22 01:18:26;;;;;;;10.13;5.18;;;;;;;3.47;39.06;101990.38;4491324;31;34648;-83
2022/03/22 01:20:53;;;;;;;9.52;4.35;;;;;;;3.34;39.45;101991.84;4464615;31;32534;-82
2022/03/22 01:23:24;;;;;;;12.18;4.60;;;;;;;3.49;38.96;101991.28;4490739;31;33441;-83
2022/03/22 01:25:52;;;;;;;7.80;4.22;;;;;;;2.99;39.47;101991.09;4491548;31;33256;-82
2022/03/22 01:28:19;;;;;;;12.07;4.78;;;;;;;3.28;39.10;101990.84;4474073;31;34153;-82
2022/03/22 01:30:47;;;;;;;12.05;5.45;;;;;;;3.34;38.92;101983.13;4475292;31;33015;-82
2022/03/22 01:33:15;;;;;;;13.02;5.70;;;;;;;3.22;39.60;101985.47;4479195;31;33139;-83
2022/03/22 01:35:43;;;;;;;13.32;5.97;;;;;;;2.80;40.87;101994.12;4475651;31;32714;-81
2022/03/22 01:38:11;;;;;;;16.05;6.95;;;;;;;3.02;40.45;101987.66;4486070;31;34498;-82
2022/03/22 01:40:38;;;;;;;12.68;5.97;;;;;;;3.08;40.57;101986.06;4480020;31;33618;-82
2022/03/22 01:43:06;;;;;;;15.18;7.30;;;;;;;2.94;40.58;101986.59;4492538;31;33465;-83
2022/03/22 01:45:34;;;;;;;14.93;6.20;;;;;;;3.18;40.39;101988.88;4479402;31;33289;-83
2022/03/22 01:48:04;;;;;;;18.70;7.05;;;;;;;3.10;40.32;101988.72;4479627;31;34308;-82
2022/03/22 01:50:32;;;;;;;13.38;6.72;;;;;;;3.18;40.00;101979.34;4479076;31;33867;-82
2022/03/22 01:53:00;;;;;;;12.32;6.32;;;;;;;3.11;39.64;101976.56;4478569;31;34171;-82
2022/03/22 01:55:30;;;;;;;13.35;6.85;;;;;;;3.15;40.04;101987.09;4478787;31;33045;-82
2022/03/22 01:57:58;;;;;;;11.43;5.90;;;;;;;3.17;40.03;101989.72;4492457;31;33611;-82
2022/03/22 02:00:26;;;;;;;11.15;6.37;;;;;;;3.06;40.20;101976.44;4473334;31;33242;-82
2022/03/22 02:05:52;;;;;;;14.43;5.93;;;;;;;3.20;39.79;101977.62;4481634;31;32302;-82
2022/03/22 02:08:23;;;;;;;9.98;5.37;;;;;;;2.92;40.21;101972.66;4476432;31;33220;-82
2022/03/22 02:10:52;;;;;;;19.03;6.50;;;;;;;2.92;40.45;101970.94;4477172;31;34300;-83
2022/03/22 02:13:19;;;;;;;12.75;5.50;;;;;;;3.05;40.01;101970.34;4477714;31;33319;-82
2022/03/22 02:15:49;;;;;;;10.50;5.53;;;;;;;3.01;40.08;101965.03;4490708;31;32749;-82
2022/03/22 02:18:17;;;;;;;10.02;5.82;;;;;;;2.86;40.43;101972.53;4493051;31;34423;-83
2022/03/22 02:20:46;;;;;;;12.32;6.62;;;;;;;3.07;40.34;101971.25;4492162;31;34780;-82
2022/03/22 02:23:21;;;;;;;19.00;6.05;;;;;;;2.82;40.51;101966.34;4479831;31;32526;-82
2022/03/22 02:25:49;;;;;;;8.98;4.80;;;;;;;2.91;40.69;101960.47;4491595;31;34126;-82
2022/03/22 02:28:20;;;;;;;9.23;5.15;;;;;;;2.98;40.27;101968.44;4493062;31;35248;-83
2022/03/22 02:30:52;;;;;;;7.82;4.75;;;;;;;3.05;40.07;101969.47;4465898;31;32708;-82
2022/03/22 02:33:20;;;;;;;10.52;5.03;;;;;;;2.86;40.85;101964.69;4493022;31;34875;-83
2022/03/22 02:35:48;;;;;;;10.82;5.20;;;;;;;2.91;40.96;101970.91;4479195;31;32415;-83
2022/03/22 02:38:16;;;;;;;12.30;5.47;;;;;;;2.89;40.79;101964.75;4479986;31;33407;-83
2022/03/22 02:40:45;;;;;;;9.00;4.78;;;;;;;2.65;41.33;101963.34;4492937;31;33714;-83
2022/03/22 02:43:13;;;;;;;11.40;5.62;;;;;;;2.77;41.27;101958.41;4475984;31;32855;-82
2022/03/22 02:45:41;;;;;;;12.88;5.72;;;;;;;2.75;41.12;101964.44;4493548;31;33864;-82
2022/03/22 02:48:11;;;;;;;12.52;5.28;;;;;;;2.68;41.12;101967.75;4478869;31;33524;-82
2022/03/22 02:50:39;;;;;;;11.73;5.87;;;;;;;2.26;42.12;101974.59;4463098;31;33560;-83
2022/03/22 02:53:06;;;;;;;11.07;5.65;;;;;;;2.60;41.40;101970.19;4477797;31;32573;-82
2022/03/22 02:55:34;;;;;;;13.05;6.18;;;;;;;2.54;41.55;101981.34;4493013;31;33051;-82
2022/03/22 02:58:03;;;;;;;12.55;5.93;;;;;;;2.29;41.90;101974.66;4476549;31;34084;-81
2022/03/22 03:00:35;;;;;;;15.63;6.17;;;;;;;2.32;42.03;101973.84;4477100;31;33533;-82
2022/03/22 03:03:04;;;;;;;13.40;5.03;;;;;;;2.10;42.58;101967.22;4492155;31;33945;-83
2022/03/22 03:05:35;;;;;;;9.77;4.80;;;;;;;2.39;42.32;101969.69;4479843;31;33320;-83
2022/03/22 03:08:03;;;;;;;11.88;5.50;;;;;;;2.65;41.62;101970.28;4479126;31;32795;-83
2022/03/22 03:10:31;;;;;;;11.20;5.62;;;;;;;2.49;41.78;101976.88;4478646;31;33908;-82
2022/03/22 03:13:03;;;;;;;11.70;5.22;;;;;;;2.59;41.69;101973.66;4492680;31;33394;-82
2022/03/22 03:15:31;;;;;;;12.27;5.90;;;;;;;2.40;42.33;101974.03;4477272;31;33908;-82
2022/03/22 03:17:59;;;;;;;10.20;6.03;;;;;;;2.38;42.40;101978.34;4489539;31;33074;-82
2022/03/22 03:20:28;;;;;;;11.10;5.00;;;;;;;2.69;41.66;101980.84;4491412;31;34695;-82
2022/03/22 03:22:56;;;;;;;8.35;4.53;;;;;;;1.95;42.95;101979.88;4467685;31;32966;-83
2022/03/22 03:25:24;;;;;;;11.82;5.28;;;;;;;2.51;42.10;101981.28;4492418;31;33204;-81
2022/03/22 03:27:52;;;;;;;8.75;5.22;;;;;;;2.56;41.93;101984.00;4479333;31;33643;-81
2022/03/22 03:30:20;;;;;;;8.88;4.82;;;;;;;2.63;41.73;101985.91;4491766;31;33609;-81
2022/03/22 03:32:48;;;;;;;6.60;4.50;;;;;;;2.46;42.10;101990.72;4492392;31;33205;-81
2022/03/22 03:35:16;;;;;;;10.20;4.78;;;;;;;2.39;42.55;101990.53;4479163;31;33106;-81
2022/03/22 03:37:45;;;;;;;9.48;4.68;;;;;;;2.37;42.23;101987.00;4491384;31;33348;-81
2022/03/22 03:40:13;;;;;;;9.27;5.50;;;;;;;2.54;42.03;101988.31;4476819;31;33796;-81
2022/03/22 03:42:45;;;;;;;12.48;5.93;;;;;;;2.31;42.63;101982.50;4491863;31;33603;-80
2022/03/22 03:48:00;;;;;;;10.43;4.72;;;;;;;2.42;42.28;101981.06;4493716;31;34496;-81
2022/03/22 03:50:28;;;;;;;9.57;5.35;;;;;;;2.19;43.08;101977.00;4459968;31;32303;-82
2022/03/22 03:52:56;;;;;;;9.75;5.65;;;;;;;2.01;43.50;101982.63;4492599;31;33442;-82
2022/03/22 03:55:24;;;;;;;11.60;5.57;;;;;;;2.23;42.95;101981.44;4478721;31;32574;-82
2022/03/22 03:57:51;;;;;;;9.88;5.05;;;;;;;2.07;43.26;101982.78;4488119;31;33792;-81
2022/03/22 04:00:19;;;;;;;12.40;5.00;;;;;;;2.14;43.21;101984.72;4490633;31;33722;-81
2022/03/22 04:02:47;;;;;;;7.55;4.12;;;;;;;2.11;43.39;101974.19;4490507;31;33836;-81
2022/03/22 04:05:15;;;;;;;10.75;5.00;;;;;;;2.29;42.81;101985.09;4490867;31;33395;-80
2022/03/22 04:07:42;;;;;;;9.73;5.03;;;;;;;2.36;42.51;101987.84;4492772;31;34325;-82
2022/03/22 04:10:10;;;;;;;4.15;3.55;;;;;;;2.46;42.46;101989.84;4484787;31;33288;-82
2022/03/22 04:12:42;;;;;;;8.10;4.82;;;;;;;2.36;42.64;101991.34;4479816;31;33458;-81
2022/03/22 04:15:09;;;;;;;11.50;4.93;;;;;;;2.33;42.61;101990.38;4477464;31;33884;-81
2022/03/22 04:17:38;;;;;;;11.65;4.87;;;;;;;2.28;42.74;101990.28;4479029;31;33507;-81
2022/03/22 04:20:07;;;;;;;10.70;4.62;;;;;;;2.24;42.88;101989.31;4478413;31;34803;-80
2022/03/22 04:22:36;;;;;;;7.62;4.18;;;;;;;2.24;42.73;101994.53;4478172;31;33450;-80
2022/03/22 04:25:05;;;;;;;10.80;4.32;;;;;;;2.30;42.71;102002.50;4489926;31;32635;-80
2022/03/22 04:33:06;;;;;;;9.90;4.60;;;;;;;2.36;42.59;102000.88;4488461;31;33549;-81
2022/03/22 04:35:34;;;;;;;5.37;4.05;;;;;;;2.25;42.87;102008.44;4465793;31;32813;-80
2022/03/22 04:38:01;;;;;;;8.65;4.60;;;;;;;2.18;43.20;102012.59;4476736;31;32476;-80
2022/03/22 04:40:29;;;;;;;13.60;5.53;;;;;;;2.10;43.36;102016.75;4491183;31;33570;-81
2022/03/22 04:42:57;;;;;;;10.13;4.78;;;;;;;1.99;43.34;102026.91;4489993;31;33566;-81
2022/03/22 04:45:25;;;;;;;11.50;5.03;;;;;;;2.15;42.79;102009.94;4476228;31;32893;-80
2022/03/22 04:47:53;;;;;;;9.90;4.57;;;;;;;2.04;43.35;102014.88;4478264;31;34203;-80
2022/03/22 04:50:21;;;;;;;10.88;4.93;;;;;;;2.06;43.58;102020.09;4489231;31;33540;-81
2022/03/22 04:58:22;;;;;;;8.10;4.78;;;;;;;2.11;43.75;102021.13;4487893;31;34503;-81
2022/03/22 05:00:50;;;;;;;11.40;5.72;;;;;;;1.85;44.52;102022.12;4476751;31;32458;-81
2022/03/22 05:03:18;;;;;;;9.40;5.15;;;;;;;1.92;44.57;102029.28;4492568;31;33712;-81
2022/03/22 05:08:32;;;;;;;10.65;5.37;;;;;;;2.20;43.47;102021.34;4492553;31;32928;-81
2022/03/22 05:11:00;;;;;;;10.50;5.12;;;;;;;1.91;44.42;102020.59;4479868;31;34462;-82
2022/03/22 05:13:28;;;;;;;12.05;5.28;;;;;;;2.04;44.13;102024.38;4476592;31;32588;-82
2022/03/22 05:15:56;;;;;;;11.60;5.87;;;;;;;2.14;44.10;102025.53;4476939;31;32756;-82
2022/03/22 05:18:27;;;;;;;12.88;5.12;;;;;;;2.08;44.03;102026.22;4491315;31;33842;-82
2022/03/22 05:20:55;;;;;;;10.98;5.60;;;;;;;2.21;44.12;102019.63;4478973;31;34363;-82
2022/03/22 05:23:22;;;;;;;9.93;5.78;;;;;;;1.89;44.37;102030.06;4494184;31;34192;-81
2022/03/22 05:25:50;;;;;;;11.82;5.62;;;;;;;2.15;43.86;102028.16;4478990;31;33738;-82
2022/03/22 05:28:18;;;;;;;17.98;5.50;;;;;;;2.19;44.00;102026.53;4476514;31;33996;-82
2022/03/22 05:30:45;;;;;;;12.55;5.62;;;;;;;2.19;44.11;102024.81;4491397;31;33708;-82
2022/03/22 05:33:13;;;;;;;9.40;4.57;;;;;;;1.83;45.28;102029.03;4490043;31;33389;-81
2022/03/22 05:35:41;;;;;;;15.25;6.43;;;;;;;2.19;44.58;102024.81;4493102;31;34125;-82
2022/03/22 05:38:09;;;;;;;10.85;5.65;;;;;;;2.38;44.34;102027.91;4478094;31;32599;-81
2022/03/22 05:40:38;;;;;;;12.18;5.43;;;;;;;2.64;44.00;102021.56;4477894;31;33456;-81
2022/03/22 05:43:06;;;;;;;7.70;5.12;;;;;;;1.90;45.81;102037.06;4479927;31;32646;-82
2022/03/22 05:45:34;;;;;;;10.95;6.05;;;;;;;2.31;45.30;102025.09;4481143;31;32500;-81
2022/03/22 05:48:02;;;;;;;12.23;5.75;;;;;;;2.54;44.48;102024.81;4491973;31;33776;-81
2022/03/22 05:50:30;;;;;;;11.27;5.75;;;;;;;2.50;43.98;102026.44;4491872;31;34437;-81
2022/03/22 05:52:58;;;;;;;9.45;6.05;;;;;;;2.71;43.10;102026.13;4492684;31;33812;-81
2022/03/22 05:55:25;;;;;;;16.52;6.78;;;;;;;2.77;42.62;102026.25;4479088;31;33262;-81
2022/03/22 05:57:53;;;;;;;18.17;7.12;;;;;;;3.12;42.00;102027.91;4477870;31;33921;-81
2022/03/22 06:00:21;;;;;;;16.65;7.37;;;;;;;3.26;41.57;102032.56;4478564;31;33170;-80
2022/03/22 06:02:49;;;;;;;21.10;7.28;;;;;;;3.67;41.76;102031.69;4478640;31;33800;-81
2022/03/22 06:05:17;;;;;;;18.27;7.35;;;;;;;4.04;41.27;102035.91;4478239;31;33161;-82
2022/03/22 06:07:45;;;;;;;15.20;8.00;;;;;;;3.80;41.00;102041.56;4477043;31;33653;-82
2022/03/22 06:10:13;;;;;;;18.35;7.75;;;;;;;3.62;40.26;102044.66;4491169;31;33994;-81
2022/03/22 06:12:44;;;;;;;16.55;8.07;;;;;;;3.80;40.85;102042.44;4490458;31;33436;-81
2022/03/22 06:15:14;;;;;;;25.00;9.15;;;;;;;4.20;40.32;102037.94;4477009;31;32992;-81
2022/03/22 06:17:46;;;;;;;27.30;9.63;;;;;;;3.99;40.37;102030.59;4477103;31;33679;-81
2022/03/22 06:20:14;;;;;;;;;;;;;;;4.46;40.38;102032.28;4464393;31;32818;-81
2022/03/22 06:22:42;;;;;;;36.10;12.57;;;;;;;4.85;41.20;102025.09;4478628;31;33319;-81
2022/03/22 06:25:09;;;;;;;26.92;12.23;;;;;;;4.81;39.80;102036.38;4492335;31;33343;-81
2022/03/22 06:27:38;;;;;;;57.22;22.92;;;;;;;5.06;41.08;102035.00;4489871;31;33858;-81
2022/03/22 06:30:07;;;;;;;59.97;25.85;;;;;;;5.48;39.27;102040.81;4477926;31;34275;-81
2022/03/22 06:32:51;;;;;;;33.97;16.87;;;;;;;5.19;38.80;102035.19;4464938;31;32483;-80
2022/03/22 06:35:21;;;;;;;41.08;15.90;;;;;;;5.71;38.82;102031.50;4477162;31;32725;-80
2022/03/22 06:37:50;;;;;;;34.38;15.00;;;;;;;5.90;39.35;102032.59;4478688;31;32678;-80
2022/03/22 06:40:21;;;;;;;32.75;14.60;;;;;;;5.85;37.58;102035.16;4475406;31;34713;-80
2022/03/22 06:42:49;;;;;;;30.15;12.85;;;;;;;6.02;36.36;102037.09;4480469;31;33598;-81
2022/03/22 06:45:17;;;;;;;29.70;13.15;;;;;;;6.39;35.70;102033.09;4478437;31;34042;-82
2022/03/22 06:47:46;;;;;;;32.53;13.23;;;;;;;6.41;35.68;102037.53;4467466;31;33179;-84
2022/03/22 06:50:15;;;;;;;37.53;15.93;;;;;;;6.51;35.22;102037.59;4467120;31;32886;-84
2022/03/22 06:52:43;;;;;;;49.65;16.95;;;;;;;7.05;35.86;102033.63;4467322;31;32606;-83
2022/03/22 06:55:13;;;;;;;45.80;17.40;;;;;;;7.25;34.72;102028.47;4489884;31;34273;-83
2022/03/22 06:57:41;;;;;;;44.88;17.27;;;;;;;7.76;35.21;102027.84;4477689;31;33745;-84
2022/03/22 07:00:11;;;;;;;44.78;16.80;;;;;;;7.86;34.09;102024.38;4477177;31;32845;-83
2022/03/22 07:02:42;;;;;;;36.10;15.98;;;;;;;8.18;32.85;102029.72;4488099;31;35139;-83
2022/03/22 07:05:10;;;;;;;42.22;15.50;;;;;;;8.29;33.01;102028.84;4490937;31;33186;-83
2022/03/22 07:07:38;;;;;;;30.12;12.68;;;;;;;8.99;32.70;102020.97;4476778;31;35032;-83
2022/03/22 07:10:09;;;;;;;34.42;12.57;;;;;;;8.85;32.28;102026.25;4490928;31;34383;-83
2022/03/22 07:12:55;;;;;;;26.67;11.55;;;;;;;9.12;31.54;102016.56;4478424;31;34050;-85
2022/03/22 07:15:30;;;;;;;23.42;11.02;;;;;;;9.80;32.39;102010.13;4478313;31;33592;-84
2022/03/22 07:18:03;;;;;;;16.45;8.95;;;;;;;9.94;31.56;102012.69;4490525;31;33522;-84
2022/03/22 07:20:31;;;;;;;14.27;8.55;;;;;;;10.32;31.07;102015.12;4466539;31;33418;-83
2022/03/22 07:23:00;;;;;;;19.33;9.43;;;;;;;10.60;28.57;102009.63;4476678;31;32993;-83
2022/03/22 07:25:28;;;;;;;16.50;9.13;;;;;;;10.96;28.69;102008.38;4491291;31;33282;-83
2022/03/22 07:27:56;;;;;;;18.92;8.77;;;;;;;11.17;29.51;102009.94;4491169;31;34056;-83
2022/03/22 07:30:24;;;;;;;17.00;8.57;;;;;;;11.09;26.70;102010.03;4477355;31;33482;-82
2022/03/22 07:32:52;;;;;;;15.45;9.10;;;;;;;11.42;26.36;102015.81;4476113;31;33870;-84
2022/03/22 07:35:20;;;;;;;17.25;9.45;;;;;;;12.01;25.66;102009.78;4492059;31;33856;-84
2022/03/22 07:37:52;;;;;;;17.27;9.27;;;;;;;12.32;24.90;102004.03;4477024;31;33252;-83
2022/03/22 07:40:20;;;;;;;17.70;9.15;;;;;;;12.62;24.32;102007.06;4479222;31;34023;-84
2022/03/22 07:42:48;;;;;;;16.05;10.52;;;;;;;12.66;24.17;102003.47;4490758;31;34784;-83
2022/03/22 07:45:19;;;;;;;18.05;10.40;;;;;;;12.51;23.86;102005.47;4476983;31;34421;-84
2022/03/22 07:47:48;;;;;;;15.23;9.48;;;;;;;12.69;23.78;102006.94;4477344;31;34523;-83
2022/03/22 07:53:08;;;;;;;21.10;10.32;;;;;;;12.81;21.89;102008.50;4479061;31;33159;-82
2022/03/22 07:55:38;;;;;;;17.02;9.48;;;;;;;13.25;21.65;102007.72;4491849;31;33060;-83
2022/03/22 07:58:07;;;;;;;26.37;10.60;;;;;;;13.55;22.94;102005.34;4492586;31;33281;-82
2022/03/22 08:00:37;;;;;;;19.30;10.25;;;;;;;13.57;21.98;102012.34;4489822;31;33647;-83
2022/03/22 08:03:09;;;;;;;17.42;11.02;;;;;;;13.87;21.65;102004.66;4491652;31;33689;-82
2022/03/22 08:05:39;;;;;;;16.08;10.45;;;;;;;13.76;22.92;102011.97;4488482;31;33395;-84
2022/03/22 08:08:07;;;;;;;22.55;11.38;;;;;;;14.10;20.99;102001.47;4476690;31;33278;-81
2022/03/22 08:10:55;;;;;;;19.50;11.65;;;;;;;14.26;20.37;102004.62;4489952;31;33170;-82
2022/03/22 08:13:22;;;;;;;20.45;11.27;;;;;;;14.65;20.00;101997.47;4476719;31;32475;-82
2022/03/22 08:15:50;;;;;;;17.12;10.23;;;;;;;13.98;20.89;101997.31;4484983;31;32796;-82
2022/03/22 08:18:18;;;;;;;19.45;11.52;;;;;;;14.40;21.25;102002.53;4493396;31;34365;-82
2022/03/22 08:20:45;;;;;;;23.02;12.18;;;;;;;14.23;21.92;101992.28;4490670;31;33514;-81
2022/03/22 08:23:14;;;;;;;20.67;12.85;;;;;;;14.11;20.60;101989.06;4491357;31;33794;-82
2022/03/22 08:25:48;;;;;;;19.05;11.30;;;;;;;14.20;21.92;101991.50;4476226;31;32780;-82
2022/03/22 08:28:18;;;;;;;21.83;10.82;;;;;;;14.70;20.74;101987.59;4487892;31;33594;-82
2022/03/22 08:30:46;;;;;;;18.23;11.25;;;;;;;15.00;20.44;101991.25;4477019;31;33682;-81
2022/03/22 08:33:14;;;;;;;19.85;11.35;;;;;;;14.35;21.45;101981.38;4491039;31;32625;-82
2022/03/22 08:35:47;;;;;;;21.35;11.25;;;;;;;14.92;20.25;101987.91;4477978;31;33046;-82
2022/03/22 08:38:14;;;;;;;;;;;;;;;15.06;19.73;101980.44;4474872;31;32414;-82
2022/03/22 08:40:42;;;;;;;20.23;11.77;;;;;;;14.62;19.49;101992.22;4476622;31;34345;-81
2022/03/22 08:43:10;;;;;;;28.77;10.90;;;;;;;14.96;19.63;101984.25;4477868;31;34004;-82
2022/03/22 08:45:37;;;;;;;23.08;12.43;;;;;;;15.08;19.04;101983.91;4491271;31;34322;-82
2022/03/22 08:48:10;;;;;;;20.05;12.32;;;;;;;15.37;19.68;101974.22;4476449;31;34086;-82
2022/03/22 08:50:43;;;;;;;20.23;11.30;;;;;;;15.26;18.79;101979.88;4477794;31;33878;-81
2022/03/22 08:53:12;;;;;;;19.60;10.88;;;;;;;15.58;18.71;101973.59;4490516;31;33570;-81
2022/03/22 08:55:46;;;;;;;23.92;13.13;;;;;;;15.92;18.45;101966.41;4490374;31;32644;-81
2022/03/22 08:58:16;;;;;;;17.55;11.32;;;;;;;16.14;19.05;101964.78;4478762;31;32717;-81
2022/03/22 09:00:45;;;;;;;21.12;11.95;;;;;;;16.17;19.12;101955.84;4478307;31;35131;-81
2022/03/22 09:03:14;;;;;;;21.73;11.00;;;;;;;16.26;18.16;101956.41;4490562;31;34186;-81
2022/03/22 09:08:29;;;;;;;18.85;12.30;;;;;;;15.91;20.87;101959.34;4493169;31;34523;-81
2022/03/22 09:10:57;;;;;;;18.80;11.12;;;;;;;16.29;19.25;101950.09;4475546;31;33281;-81
2022/03/22 09:13:29;;;;;;;25.42;12.50;;;;;;;16.55;17.90;101952.75;4489245;31;34153;-81
2022/03/22 09:15:56;;;;;;;18.17;10.80;;;;;;;16.44;20.62;101954.06;4486762;31;33104;-81
2022/03/22 09:18:26;;;;;;;19.60;11.50;;;;;;;15.99;18.41;101944.84;4489356;31;33005;-81
2022/03/22 09:20:53;;;;;;;18.77;11.55;;;;;;;16.21;19.97;101947.69;4490356;31;34122;-81
2022/03/22 09:23:21;;;;;;;23.25;11.75;;;;;;;16.59;17.88;101943.72;4490869;31;34076;-81
2022/03/22 09:25:50;;;;;;;20.77;12.45;;;;;;;16.37;18.78;101938.25;4479963;31;32974;-81
2022/03/22 09:28:18;;;;;;;17.87;11.45;;;;;;;16.24;18.11;101941.41;4490196;31;34769;-82
2022/03/22 09:30:48;;;;;;;24.67;11.27;;;;;;;16.29;18.75;101936.78;4476491;31;33710;-79
2022/03/22 09:33:22;;;;;;;20.20;11.23;;;;;;;16.65;19.15;101935.50;4475271;31;34455;-81
2022/03/22 09:35:53;;;;;;;19.67;10.90;;;;;;;16.45;17.70;101935.31;4490064;31;33444;-81
2022/03/22 09:38:21;;;;;;;22.03;11.30;;;;;;;17.04;18.21;101927.03;4489200;31;35055;-81
2022/03/22 09:40:52;;;;;;;18.90;11.88;;;;;;;17.34;17.86;101926.81;4490607;31;33502;-81
2022/03/22 09:43:23;;;;;;;18.92;11.73;;;;;;;17.26;20.23;101926.22;4488550;31;33094;-79
2022/03/22 09:45:52;;;;;;;20.92;12.15;;;;;;;17.17;17.64;101926.56;4490187;31;33236;-81
2022/03/22 09:48:20;;;;;;;21.75;12.05;;;;;;;17.21;16.67;101920.19;4491442;31;34405;-81
2022/03/22 09:53:34;;;;;;;17.33;10.68;;;;;;;17.69;19.02;101921.91;4487543;31;33807;-81
2022/03/22 09:56:02;;;;;;;18.35;10.85;;;;;;;17.98;17.03;101913.59;4488793;31;33098;-81
2022/03/22 09:58:33;;;;;;;19.62;11.75;;;;;;;17.75;17.74;101911.00;4477411;31;34269;-81
2022/03/22 10:01:01;;;;;;;19.90;10.73;;;;;;;18.38;18.66;101911.97;4475428;31;33872;-79
2022/03/22 10:03:29;;;;;;;16.15;10.38;;;;;;;18.55;16.22;101901.37;4491301;31;33483;-79
2022/03/22 10:05:59;;;;;;;19.33;10.75;;;;;;;18.67;15.64;101903.53;4493303;31;34189;-79
2022/03/22 10:08:26;;;;;;;18.17;9.43;;;;;;;18.87;15.39;101900.00;4491236;31;33605;-79
2022/03/22 10:10:58;;;;;;;18.87;11.05;;;;;;;18.14;15.42;101904.03;4493003;31;34179;-81
2022/03/22 10:13:26;;;;;;;17.58;10.18;;;;;;;18.19;17.79;101900.31;4478395;31;33191;-81
2022/03/22 10:16:00;;;;;;;17.73;9.60;;;;;;;18.16;15.84;101899.47;4492917;31;33715;-81
2022/03/22 10:18:29;;;;;;;14.55;9.88;;;;;;;18.59;15.51;101892.28;4478910;31;33540;-81
2022/03/22 10:21:01;;;;;;;17.52;10.10;;;;;;;18.33;15.78;101897.91;4477990;31;34850;-81
2022/03/22 10:23:31;;;;;;;16.80;10.10;;;;;;;18.31;15.58;101895.28;4492148;31;33447;-79
2022/03/22 10:26:07;;;;;;;15.70;10.32;;;;;;;18.33;15.73;101890.75;4478838;31;32288;-79
2022/03/22 10:28:36;;;;;;;17.10;9.18;;;;;;;18.26;18.67;101888.41;4477436;31;33682;-80
2022/03/22 10:31:04;;;;;;;16.33;9.73;;;;;;;18.88;15.89;101885.66;4479604;31;32743;-79
2022/03/22 10:33:31;;;;;;;14.50;9.88;;;;;;;18.96;15.59;101882.66;4492537;31;32068;-79
2022/03/22 10:36:00;;;;;;;20.92;11.77;;;;;;;18.70;15.07;101882.94;4478708;31;33736;-79
2022/03/22 10:38:29;;;;;;;21.65;10.13;;;;;;;18.58;16.80;101887.00;4494470;31;33435;-79
2022/03/22 10:40:56;;;;;;;17.75;9.93;;;;;;;18.76;19.30;101874.66;4491699;31;32363;-80
2022/03/22 10:43:26;;;;;;;16.75;10.27;;;;;;;19.41;15.55;101868.03;4478588;31;34036;-79
2022/03/22 10:46:02;;;;;;;15.88;9.98;;;;;;;18.91;15.11;101868.59;4478248;31;33471;-79
2022/03/22 10:48:34;;;;;;;19.30;9.20;;;;;;;19.35;17.11;101863.84;4480123;31;32486;-80
2022/03/22 10:51:02;;;;;;;;;;;;;;;19.53;14.28;101851.38;4491816;31;34636;-80
2022/03/22 10:53:32;;;;;;;17.00;9.68;;;;;;;19.39;15.70;101860.09;4489239;31;33577;-79
2022/03/22 10:56:02;;;;;;;16.90;9.32;;;;;;;19.51;17.87;101850.56;4490358;31;33493;-79
2022/03/22 10:58:31;;;;;;;16.73;9.82;;;;;;;20.33;13.89;101836.69;4479378;31;33628;-80
2022/03/22 11:01:03;;;;;;;16.08;9.73;;;;;;;20.14;16.13;101840.31;4479352;31;33585;-79
2022/03/22 11:03:32;;;;;;;14.25;9.07;;;;;;;20.43;16.20;101838.81;4489501;31;35708;-79
2022/03/22 11:06:04;;;;;;;18.80;9.25;;;;;;;20.97;13.75;101819.81;4491213;31;33608;-79
2022/03/22 11:08:32;;;;;;;16.02;9.05;;;;;;;20.82;15.43;101823.34;4492426;31;33562;-79
2022/03/22 11:11:00;;;;;;;13.68;9.18;;;;;;;20.43;14.74;101827.19;4477068;31;33877;-79
2022/03/22 11:13:28;;;;;;;14.48;8.35;;;;;;;20.14;15.05;101826.91;4462557;31;35249;-80
2022/03/22 11:15:56;;;;;;;14.95;9.00;;;;;;;21.14;13.22;101813.53;4491141;31;33463;-79
2022/03/22 11:18:28;;;;;;;20.10;9.38;;;;;;;21.50;12.38;101812.41;4491709;31;33803;-79
2022/03/22 11:21:00;;;;;;;12.63;8.48;;;;;;;21.45;12.78;101802.78;4490417;31;33978;-79
2022/03/22 11:23:33;;;;;;;18.17;9.43;;;;;;;21.25;13.48;101808.41;4491391;31;33202;-80
2022/03/22 11:26:09;;;;;;;16.87;9.55;;;;;;;21.70;14.38;101796.88;4493324;31;33137;-79
2022/03/22 11:28:38;;;;;;;13.52;9.85;;;;;;;22.13;12.54;101796.19;4489221;31;34302;-80
2022/03/22 11:31:10;;;;;;;15.55;8.93;;;;;;;21.48;14.11;101791.00;4478197;31;34032;-79
2022/03/22 11:36:29;;;;;;;14.05;8.52;;;;;;;21.92;13.24;101791.06;4494750;31;33311;-79
2022/03/22 11:38:58;;;;;;;15.32;7.82;;;;;;;22.44;12.23;101787.06;4477600;31;33888;-80
2022/03/22 11:44:36;;;;;;;12.93;8.60;;;;;;;22.09;13.73;101779.31;4490597;31;33480;-79
2022/03/22 11:47:08;;;;;;;18.52;9.65;;;;;;;22.25;13.59;101779.28;4477612;31;33969;-79
2022/03/22 11:49:49;;;;;;;17.10;9.50;;;;;;;22.82;11.44;101773.03;4493164;31;34858;-79
2022/03/22 11:52:19;;;;;;;16.17;9.20;;;;;;;22.45;13.10;101765.44;4492659;31;33630;-79
2022/03/22 11:55:19;;;;;;;11.93;7.97;;;;;;;22.68;12.08;101764.00;4489861;31;33446;-80
2022/03/22 11:57:52;;;;;;;11.38;6.72;;;;;;;22.19;12.28;101771.59;4490008;31;33364;-80
2022/03/22 12:00:47;;;;;;;12.75;7.18;;;;;;;22.03;12.13;101759.97;4488057;31;33888;-79
2022/03/22 12:03:16;;;;;;;11.98;6.95;;;;;;;21.57;13.75;101758.22;4478631;31;33230;-80
2022/03/22 12:05:44;;;;;;;12.05;6.62;;;;;;;21.92;12.07;101747.19;4493032;31;34429;-79